Time;durP1;ratioP1;P1;durP2;ratioP2;P2;SDS_P1;SDS_P2;PMS_P1;PMS_P2;Temp;Humidity;BMP_temperature;BMP_pressure;BME280_temperature;BME280_humidity;BME280_pressure;Samples;Min_cycle;Max_cycle;Signal;HPM_P1;HPM_P2
2023/07/23 00:01:44;;;;;;;24.37;22.40;;;;;;;15.11;100.00;100910.66;5051869;28;20934;-40
2023/07/23 00:04:13;;;;;;;23.73;21.80;;;;;;;15.08;100.00;100910.28;5051404;28;20832;-39
2023/07/23 00:06:41;;;;;;;23.40;21.83;;;;;;;15.05;100.00;100894.59;5051735;28;20427;-44
2023/07/23 00:09:10;;;;;;;20.97;19.67;;;;;;;15.02;100.00;100898.56;5052108;28;20526;-41
2023/07/23 00:11:38;;;;;;;23.03;20.93;;;;;;;14.98;100.00;100900.03;5051869;28;20477;-42
2023/07/23 00:14:07;;;;;;;23.53;21.83;;;;;;;14.98;100.00;100901.88;5052059;28;20815;-41
2023/07/23 00:16:34;;;;;;;21.93;20.33;;;;;;;14.99;100.00;100888.25;5051696;28;20431;-41
2023/07/23 00:19:03;;;;;;;22.00;20.33;;;;;;;15.04;100.00;100895.63;5051444;28;20431;-42
2023/07/23 00:21:31;;;;;;;21.40;19.57;;;;;;;15.01;100.00;100885.34;5050274;28;20423;-45
2023/07/23 00:23:59;;;;;;;21.53;20.10;;;;;;;14.95;100.00;100877.13;5050889;28;20493;-44
2023/07/23 00:26:28;;;;;;;23.63;21.87;;;;;;;14.95;100.00;100887.88;5051320;28;20511;-40
2023/07/23 00:28:56;;;;;;;23.97;20.03;;;;;;;14.91;100.00;100875.91;5051492;28;20435;-40
2023/07/23 00:31:25;;;;;;;21.13;19.63;;;;;;;14.91;100.00;100883.16;5050960;28;20561;-43
2023/07/23 00:33:53;;;;;;;20.53;19.20;;;;;;;14.89;100.00;100872.66;5050994;28;20859;-43
2023/07/23 00:36:21;;;;;;;22.53;21.03;;;;;;;14.89;100.00;100867.28;5051160;28;20471;-43
2023/07/23 00:38:49;;;;;;;23.00;21.33;;;;;;;14.90;100.00;100863.53;5050730;28;20808;-40
2023/07/23 00:41:17;;;;;;;23.47;21.87;;;;;;;14.87;100.00;100857.81;5050752;28;20485;-42
2023/07/23 00:43:45;;;;;;;24.57;22.53;;;;;;;14.85;100.00;100855.31;5050595;28;20455;-40
2023/07/23 00:46:13;;;;;;;24.47;22.67;;;;;;;14.85;100.00;100849.97;5051756;28;20485;-42
2023/07/23 00:48:42;;;;;;;25.43;23.43;;;;;;;14.83;100.00;100849.38;5051641;28;20960;-42
2023/07/23 00:51:10;;;;;;;25.00;23.27;;;;;;;14.81;100.00;100847.94;5050571;28;20525;-41
2023/07/23 00:53:38;;;;;;;25.27;23.47;;;;;;;14.81;100.00;100843.38;5050299;28;20965;-42
2023/07/23 00:56:06;;;;;;;23.60;21.90;;;;;;;14.86;100.00;100842.72;5050903;28;20528;-41
2023/07/23 00:58:34;;;;;;;23.57;21.83;;;;;;;14.86;100.00;100834.66;5050759;28;20499;-42
2023/07/23 01:01:02;;;;;;;25.40;23.50;;;;;;;14.82;100.00;100836.97;5051537;28;20848;-42
2023/07/23 01:03:30;;;;;;;25.47;23.43;;;;;;;14.81;100.00;100835.31;5049903;28;20451;-41
2023/07/23 01:06:03;;;;;;;25.13;23.30;;;;;;;14.84;100.00;100837.56;5050647;28;20427;-42
2023/07/23 01:08:32;;;;;;;24.67;22.53;;;;;;;14.86;100.00;100834.66;5050338;28;20444;-44
2023/07/23 01:11:00;;;;;;;25.73;23.60;;;;;;;14.84;100.00;100834.88;5050652;28;20471;-41
2023/07/23 01:13:28;;;;;;;25.80;23.83;;;;;;;14.86;100.00;100829.31;5050007;28;21058;-40
2023/07/23 01:15:57;;;;;;;25.07;23.33;;;;;;;14.87;100.00;100820.22;5050776;28;20546;-42
2023/07/23 01:18:26;;;;;;;25.10;23.50;;;;;;;14.87;100.00;100820.22;5050881;28;20463;-42
2023/07/23 01:20:54;;;;;;;27.53;25.23;;;;;;;14.89;100.00;100818.13;5049920;28;20502;-41
2023/07/23 01:23:23;;;;;;;26.50;24.50;;;;;;;14.87;100.00;100812.97;5050414;28;20451;-39
2023/07/23 01:25:50;;;;;;;26.03;23.93;;;;;;;14.86;100.00;100815.88;5049696;28;20838;-44
2023/07/23 01:28:18;;;;;;;26.73;24.63;;;;;;;14.81;100.00;100805.78;5050223;28;20442;-41
2023/07/23 01:30:46;;;;;;;27.57;25.37;;;;;;;14.76;100.00;100794.91;5049775;28;20507;-40
2023/07/23 01:33:15;;;;;;;26.40;24.47;;;;;;;14.75;100.00;100790.59;5049257;28;20566;-46
2023/07/23 01:35:44;;;;;;;32.27;27.70;;;;;;;14.75;100.00;100787.91;5049727;28;20458;-44
2023/07/23 01:38:14;;;;;;;30.10;27.80;;;;;;;14.77;100.00;100793.06;5050580;28;20522;-44
2023/07/23 01:40:43;;;;;;;30.40;28.00;;;;;;;14.76;100.00;100786.03;5050880;28;20868;-41
2023/07/23 01:43:11;;;;;;;28.67;26.50;;;;;;;14.79;100.00;100785.59;5050170;28;21064;-41
2023/07/23 01:45:42;;;;;;;25.53;23.43;;;;;;;14.78;100.00;100782.06;5049466;28;20463;-41
2023/07/23 01:48:10;;;;;;;29.53;27.27;;;;;;;14.77;100.00;100785.81;5050438;28;20423;-42
2023/07/23 01:50:38;;;;;;;32.30;29.73;;;;;;;14.77;100.00;100779.63;5049756;28;20481;-41
2023/07/23 01:53:06;;;;;;;29.83;27.43;;;;;;;14.79;100.00;100774.84;5050021;28;20453;-41
2023/07/23 01:55:34;;;;;;;29.87;27.23;;;;;;;14.80;100.00;100777.31;5049592;28;20474;-41
2023/07/23 01:58:03;;;;;;;27.90;26.00;;;;;;;14.79;100.00;100775.66;5050385;28;20442;-42
2023/07/23 02:00:31;;;;;;;29.57;27.27;;;;;;;14.81;100.00;100770.88;5049575;28;21219;-42
2023/07/23 02:02:59;;;;;;;29.53;27.50;;;;;;;14.79;100.00;100764.09;5049511;28;20864;-41
2023/07/23 02:05:27;;;;;;;28.07;25.93;;;;;;;14.78;100.00;100759.81;5045971;28;20993;-40
2023/07/23 02:07:54;;;;;;;30.10;28.00;;;;;;;14.76;100.00;100753.81;5050614;28;20529;-42
2023/07/23 02:10:22;;;;;;;27.43;25.57;;;;;;;14.73;100.00;100751.56;5049670;28;20526;-42
2023/07/23 02:12:50;;;;;;;30.67;28.60;;;;;;;14.73;100.00;100749.72;5049852;28;20491;-42
2023/07/23 02:15:19;;;;;;;29.37;27.27;;;;;;;14.73;100.00;100738.97;5049388;28;21027;-44
2023/07/23 02:17:47;;;;;;;30.83;28.57;;;;;;;14.72;100.00;100748.09;5049699;28;20816;-40
2023/07/23 02:20:15;;;;;;;29.50;27.30;;;;;;;14.67;100.00;100750.59;5049692;28;20462;-42
2023/07/23 02:22:42;;;;;;;29.40;27.30;;;;;;;14.68;100.00;100744.22;5049884;28;20534;-42
2023/07/23 02:25:10;;;;;;;31.73;29.23;;;;;;;14.68;100.00;100740.69;5049779;28;20479;-45
2023/07/23 02:27:38;;;;;;;32.90;30.10;;;;;;;14.71;100.00;100732.19;5049786;28;20454;-42
2023/07/23 02:30:07;;;;;;;31.17;28.77;;;;;;;14.72;100.00;100739.22;5050421;28;20431;-41
2023/07/23 02:32:36;;;;;;;32.97;30.10;;;;;;;14.71;100.00;100741.06;5049638;28;20545;-41
2023/07/23 02:35:04;;;;;;;32.93;30.47;;;;;;;14.75;100.00;100738.78;5049237;28;20920;-44
2023/07/23 02:37:31;;;;;;;34.87;31.80;;;;;;;14.74;100.00;100737.13;5049778;28;20929;-40
2023/07/23 02:39:59;;;;;;;33.17;30.63;;;;;;;14.74;100.00;100727.22;5049933;28;21552;-44
2023/07/23 02:42:27;;;;;;;32.83;30.07;;;;;;;14.78;100.00;100738.31;5050006;28;20463;-41
2023/07/23 02:44:55;;;;;;;34.20;31.43;;;;;;;14.79;100.00;100729.22;5051927;28;20520;-41
2023/07/23 02:47:22;;;;;;;35.87;32.73;;;;;;;14.79;100.00;100731.91;5053716;28;20431;-44
2023/07/23 02:49:51;;;;;;;34.33;31.57;;;;;;;14.74;100.00;100724.53;5053644;28;20431;-44
2023/07/23 02:52:19;;;;;;;34.97;32.27;;;;;;;14.77;100.00;100728.63;5053559;28;20502;-41
2023/07/23 02:54:46;;;;;;;35.00;32.07;;;;;;;14.78;100.00;100712.28;5052136;28;20553;-43
2023/07/23 02:57:14;;;;;;;34.87;32.17;;;;;;;14.80;100.00;100722.81;5054338;28;20463;-42
2023/07/23 02:59:42;;;;;;;34.67;31.97;;;;;;;14.81;100.00;100724.47;5053160;28;20443;-41
2023/07/23 03:02:09;;;;;;;34.97;32.03;;;;;;;14.81;100.00;100716.41;5053128;28;20423;-43
2023/07/23 03:04:39;;;;;;;34.07;31.40;;;;;;;14.81;100.00;100700.28;5052992;28;20547;-42
2023/07/23 03:07:09;;;;;;;36.30;33.23;;;;;;;14.84;100.00;100705.22;5053835;28;20469;-43
2023/07/23 03:09:37;;;;;;;38.03;34.77;;;;;;;14.82;100.00;100705.41;5053245;28;20438;-42
2023/07/23 03:12:05;;;;;;;36.37;33.37;;;;;;;14.83;100.00;100701.72;5053375;28;20478;-41
2023/07/23 03:14:33;;;;;;;34.00;31.20;;;;;;;14.84;100.00;100692.59;5053061;28;21001;-42
2023/07/23 03:17:01;;;;;;;35.53;32.63;;;;;;;14.87;100.00;100688.66;5053705;28;20466;-40
2023/07/23 03:19:29;;;;;;;33.63;31.10;;;;;;;14.88;100.00;100695.66;5052933;28;20443;-39
2023/07/23 03:21:55;;;;;;;34.73;32.00;;;;;;;14.91;100.00;100697.88;5053271;28;20440;-42
2023/07/23 03:24:24;;;;;;;36.50;33.40;;;;;;;14.92;100.00;100688.78;5052453;28;20513;-42
2023/07/23 03:26:52;;;;;;;39.13;36.00;;;;;;;14.92;100.00;100686.94;5053497;28;20436;-40
2023/07/23 03:29:20;;;;;;;38.57;35.53;;;;;;;14.90;100.00;100683.63;5053317;28;20438;-42
2023/07/23 03:31:47;;;;;;;36.00;33.10;;;;;;;14.91;100.00;100687.97;5052950;28;20478;-41
2023/07/23 03:34:15;;;;;;;41.40;37.87;;;;;;;14.95;100.00;100682.97;5052081;28;21059;-44
2023/07/23 03:36:43;;;;;;;39.87;36.57;;;;;;;14.89;100.00;100676.63;5053318;28;20796;-40
2023/07/23 03:39:16;;;;;;;38.90;35.80;;;;;;;14.95;100.00;100670.38;5053044;28;20523;-40
2023/07/23 03:41:46;;;;;;;39.47;35.97;;;;;;;14.94;100.00;100660.66;5052484;28;20428;-42
2023/07/23 03:44:14;;;;;;;39.33;36.03;;;;;;;14.95;100.00;100667.69;5051310;28;20477;-41
2023/07/23 03:46:44;;;;;;;36.93;33.87;;;;;;;15.00;100.00;100663.47;5053149;28;20859;-41
2023/07/23 03:49:12;;;;;;;41.60;37.90;;;;;;;14.99;100.00;100651.94;5052452;28;20747;-43
2023/07/23 03:51:40;;;;;;;37.33;34.43;;;;;;;15.03;100.00;100654.97;5052258;28;20570;-42
2023/07/23 03:54:08;;;;;;;38.43;35.47;;;;;;;15.03;100.00;100657.66;5050332;28;20489;-43
2023/07/23 03:56:35;;;;;;;36.93;34.10;;;;;;;15.06;100.00;100657.19;5051935;28;20435;-42
2023/07/23 03:59:04;;;;;;;36.60;33.70;;;;;;;15.09;100.00;100654.06;5052075;28;20442;-41
2023/07/23 04:01:32;;;;;;;36.47;33.53;;;;;;;15.10;100.00;100653.00;5052541;28;20437;-40
2023/07/23 04:04:00;;;;;;;39.60;36.30;;;;;;;15.11;100.00;100655.50;5048273;28;20468;-41
2023/07/23 04:06:28;;;;;;;36.43;33.40;;;;;;;15.13;100.00;100647.19;5052475;28;20427;-40
2023/07/23 04:08:56;;;;;;;37.13;34.23;;;;;;;15.12;100.00;100649.06;5052390;28;20441;-42
2023/07/23 04:11:24;;;;;;;38.40;35.43;;;;;;;15.14;100.00;100656.91;5052041;28;20524;-43
2023/07/23 04:13:51;;;;;;;36.87;33.90;;;;;;;15.16;100.00;100652.09;5052153;28;20464;-40
2023/07/23 04:16:20;;;;;;;37.47;34.47;;;;;;;15.20;100.00;100648.72;5052175;28;20435;-42
2023/07/23 04:18:49;;;;;;;32.57;30.17;;;;;;;15.24;100.00;100646.41;5051871;28;20522;-42
2023/07/23 04:21:18;;;;;;;35.60;32.90;;;;;;;15.25;100.00;100648.03;5051990;28;20427;-39
2023/07/23 04:23:47;;;;;;;37.10;34.27;;;;;;;15.25;100.00;100646.19;5051186;28;20452;-41
2023/07/23 04:26:15;;;;;;;33.33;30.83;;;;;;;15.31;100.00;100649.81;5052477;28;20434;-44
2023/07/23 04:28:43;;;;;;;36.63;33.53;;;;;;;15.30;100.00;100637.41;5051038;28;20789;-42
2023/07/23 04:31:12;;;;;;;36.80;33.10;;;;;;;15.30;100.00;100638.25;5051362;28;20434;-41
2023/07/23 04:33:41;;;;;;;35.90;33.00;;;;;;;15.30;100.00;100632.88;5050736;28;20479;-40
2023/07/23 04:36:09;;;;;;;32.93;30.53;;;;;;;15.35;100.00;100629.50;5051774;28;20439;-42
2023/07/23 04:38:36;;;;;;;32.40;30.03;;;;;;;15.35;100.00;100630.31;5051947;28;20518;-42
2023/07/23 04:41:04;;;;;;;35.70;33.20;;;;;;;15.39;100.00;100623.44;5051441;28;20995;-45
2023/07/23 04:43:34;;;;;;;33.90;31.40;;;;;;;15.41;100.00;100626.69;5051152;28;20466;-42
2023/07/23 04:46:02;;;;;;;34.00;31.50;;;;;;;15.46;100.00;100626.03;5051159;28;20516;-40
2023/07/23 04:48:30;;;;;;;32.13;29.73;;;;;;;15.53;100.00;100629.44;5051032;28;20431;-43
2023/07/23 04:51:01;;;;;;;33.13;30.60;;;;;;;15.58;100.00;100623.38;5051483;28;20933;-39
2023/07/23 04:53:29;;;;;;;32.00;29.80;;;;;;;15.63;100.00;100624.31;5051025;28;20485;-41
2023/07/23 04:56:00;;;;;;;32.43;30.20;;;;;;;15.65;100.00;100621.41;5051107;28;20510;-42
2023/07/23 04:58:28;;;;;;;31.90;29.70;;;;;;;15.69;100.00;100617.19;5051499;28;20455;-40
2023/07/23 05:00:55;;;;;;;31.67;29.03;;;;;;;15.73;100.00;100621.88;5051160;28;20951;-42
2023/07/23 05:03:23;;;;;;;33.70;30.73;;;;;;;15.71;100.00;100618.59;5050702;28;20808;-40
2023/07/23 05:05:53;;;;;;;31.27;29.07;;;;;;;15.73;100.00;100615.69;5050741;28;20463;-43
2023/07/23 05:08:23;;;;;;;32.87;30.63;;;;;;;15.71;100.00;100613.22;5031772;28;20438;-44
2023/07/23 05:10:50;;;;;;;30.33;28.13;;;;;;;15.78;100.00;100605.03;5031482;28;20515;-41
2023/07/23 05:13:18;;;;;;;28.20;26.30;;;;;;;15.84;100.00;100599.53;5031141;28;20480;-42
2023/07/23 05:15:46;;;;;;;29.20;27.33;;;;;;;15.89;100.00;100610.41;5030203;28;21145;-39
2023/07/23 05:18:14;;;;;;;30.03;27.97;;;;;;;15.94;100.00;100605.16;5031452;28;20432;-42
2023/07/23 05:20:41;;;;;;;28.70;26.70;;;;;;;16.03;100.00;100608.31;5031245;28;20444;-41
2023/07/23 05:23:09;;;;;;;28.10;26.40;;;;;;;16.06;100.00;100607.84;5030744;28;20475;-40
2023/07/23 05:25:38;;;;;;;29.57;27.57;;;;;;;16.11;100.00;100605.25;5031085;28;20522;-42
2023/07/23 05:28:06;;;;;;;26.30;24.50;;;;;;;16.14;100.00;100601.28;5030812;28;20432;-44
2023/07/23 05:30:34;;;;;;;26.60;24.90;;;;;;;16.16;100.00;100594.59;5030842;28;20480;-40
2023/07/23 05:33:02;;;;;;;26.13;24.43;;;;;;;16.19;100.00;100594.13;5030931;28;21113;-42
2023/07/23 05:35:31;;;;;;;25.40;23.57;;;;;;;16.22;100.00;100587.47;5030681;28;20526;-42
2023/07/23 05:37:59;;;;;;;25.57;23.77;;;;;;;16.30;100.00;100593.31;5031238;28;20443;-44
2023/07/23 05:40:26;;;;;;;25.43;23.87;;;;;;;16.34;100.00;100588.25;5030644;28;20447;-42
2023/07/23 05:42:56;;;;;;;25.53;23.93;;;;;;;16.43;100.00;100574.19;5030026;28;20476;-41
2023/07/23 05:45:24;;;;;;;25.77;24.00;;;;;;;16.45;100.00;100571.25;5030664;28;20818;-43
2023/07/23 05:47:51;;;;;;;23.60;22.20;;;;;;;16.44;100.00;100575.00;5031257;28;20432;-41
2023/07/23 05:50:19;;;;;;;24.10;22.80;;;;;;;16.41;100.00;100578.16;5031485;28;20432;-40
2023/07/23 05:52:47;;;;;;;24.17;22.70;;;;;;;16.38;100.00;100576.78;5030643;28;20558;-40
2023/07/23 05:55:14;;;;;;;24.20;22.90;;;;;;;16.37;100.00;100579.69;5030732;28;20560;-40
2023/07/23 05:57:42;;;;;;;24.23;22.90;;;;;;;16.31;100.00;100569.88;5031154;28;20431;-42
2023/07/23 06:00:12;;;;;;;23.20;21.90;;;;;;;16.23;100.00;100567.56;5030974;28;20431;-40
2023/07/23 06:02:40;;;;;;;24.17;22.87;;;;;;;16.24;100.00;100572.72;5032563;28;20461;-42
2023/07/23 06:05:08;;;;;;;25.47;23.70;;;;;;;16.24;100.00;100561.13;5046386;28;20513;-45
2023/07/23 06:07:36;;;;;;;22.43;21.23;;;;;;;16.25;100.00;100560.88;5049796;28;20463;-44
2023/07/23 06:10:05;;;;;;;22.20;21.10;;;;;;;16.26;100.00;100559.84;5051169;28;20439;-40
2023/07/23 06:12:33;;;;;;;22.67;21.47;;;;;;;16.29;100.00;100556.69;5050131;28;20437;-41
2023/07/23 06:15:01;;;;;;;23.07;21.87;;;;;;;16.38;100.00;100563.31;5050008;28;20467;-44
2023/07/23 06:17:30;;;;;;;21.30;20.20;;;;;;;16.37;100.00;100556.28;5050149;28;20427;-42
2023/07/23 06:19:57;;;;;;;21.47;20.47;;;;;;;16.43;100.00;100555.34;5053724;28;20956;-42
2023/07/23 06:22:25;;;;;;;21.43;20.30;;;;;;;16.49;100.00;100562.47;5054316;28;20466;-42
2023/07/23 06:24:53;;;;;;;21.07;19.97;;;;;;;16.50;100.00;100552.50;5053555;28;20554;-39
2023/07/23 06:27:21;;;;;;;19.23;18.23;;;;;;;16.53;100.00;100560.09;5053723;28;20527;-43
2023/07/23 06:29:48;;;;;;;19.80;18.80;;;;;;;16.55;100.00;100541.88;5053765;28;20431;-40
2023/07/23 06:32:16;;;;;;;20.90;19.90;;;;;;;16.61;100.00;100551.66;5052737;28;20474;-42
2023/07/23 06:34:45;;;;;;;20.47;19.37;;;;;;;16.58;100.00;100547.59;5052276;28;20471;-42
2023/07/23 06:37:13;;;;;;;20.17;19.23;;;;;;;16.66;100.00;100537.50;5054042;28;20462;-42
2023/07/23 06:39:41;;;;;;;18.87;17.97;;;;;;;16.78;100.00;100544.47;5052914;28;20415;-41
2023/07/23 06:42:09;;;;;;;19.13;18.30;;;;;;;16.85;100.00;100545.13;5053833;28;20438;-42
2023/07/23 06:44:39;;;;;;;19.90;19.00;;;;;;;16.84;100.00;100542.69;5050274;28;20475;-40
2023/07/23 06:47:06;;;;;;;19.27;18.47;;;;;;;16.84;100.00;100537.31;5041491;28;20875;-41
2023/07/23 06:49:34;;;;;;;20.53;19.63;;;;;;;16.81;100.00;100538.59;5046894;28;20530;-42
2023/07/23 06:52:04;;;;;;;19.83;18.80;;;;;;;16.85;100.00;100542.44;5052805;28;20435;-41
2023/07/23 06:54:32;;;;;;;19.07;18.27;;;;;;;16.84;100.00;100543.50;5051791;28;20485;-40
2023/07/23 06:57:00;;;;;;;19.03;18.17;;;;;;;16.81;100.00;100535.91;5047687;28;20470;-39
2023/07/23 06:59:28;;;;;;;18.03;17.33;;;;;;;16.77;100.00;100539.31;5042934;28;20436;-41
2023/07/23 07:01:56;;;;;;;18.40;17.70;;;;;;;16.80;100.00;100536.97;5052630;28;20518;-42
2023/07/23 07:04:23;;;;;;;17.50;16.90;;;;;;;16.76;100.00;100538.50;5051735;28;20565;-41
2023/07/23 07:06:51;;;;;;;17.37;16.67;;;;;;;16.76;100.00;100537.69;5049297;28;20431;-40
2023/07/23 07:09:20;;;;;;;18.30;17.50;;;;;;;16.84;100.00;100540.00;5052704;28;20917;-40
2023/07/23 07:11:50;;;;;;;18.00;17.07;;;;;;;16.86;100.00;100537.88;5052335;28;20435;-42
2023/07/23 07:14:18;;;;;;;17.30;16.67;;;;;;;16.84;100.00;100523.84;5052139;28;20984;-41
2023/07/23 07:16:45;;;;;;;16.90;16.30;;;;;;;16.84;100.00;100526.53;5051323;28;20521;-41
2023/07/23 07:19:14;;;;;;;16.57;16.00;;;;;;;16.80;100.00;100538.84;5040159;28;20440;-42
2023/07/23 07:21:42;;;;;;;16.70;16.10;;;;;;;16.80;100.00;100531.56;5043043;28;20436;-40
2023/07/23 07:24:10;;;;;;;17.20;16.40;;;;;;;16.78;100.00;100533.72;5048590;28;20969;-42
2023/07/23 07:26:39;;;;;;;18.10;17.40;;;;;;;16.81;100.00;100533.22;5040100;28;20526;-40
2023/07/23 07:29:06;;;;;;;18.37;17.57;;;;;;;16.75;100.00;100531.50;5042945;28;21582;-41
2023/07/23 07:31:34;;;;;;;17.97;17.30;;;;;;;16.76;100.00;100519.66;5046022;28;20481;-39
2023/07/23 07:34:03;;;;;;;18.93;18.03;;;;;;;16.75;100.00;100523.41;5051660;28;20477;-41
2023/07/23 07:36:30;;;;;;;18.90;18.10;;;;;;;16.70;100.00;100517.09;5042660;28;20999;-39
2023/07/23 07:38:58;;;;;;;18.90;18.20;;;;;;;16.73;100.00;100517.44;5052133;28;20929;-40
2023/07/23 07:41:26;;;;;;;18.50;17.70;;;;;;;16.64;100.00;100524.28;5051655;28;20485;-42
2023/07/23 07:43:55;;;;;;;19.20;18.40;;;;;;;16.59;100.00;100519.63;5047344;28;20888;-40
2023/07/23 07:46:24;;;;;;;19.13;18.20;;;;;;;16.59;100.00;100519.63;5051030;28;20804;-44
2023/07/23 07:48:52;;;;;;;17.87;16.97;;;;;;;16.57;100.00;100523.63;5050927;28;20918;-41
2023/07/23 07:51:19;;;;;;;18.33;17.63;;;;;;;16.58;100.00;100523.38;5049510;28;20523;-43
2023/07/23 07:53:47;;;;;;;19.10;18.17;;;;;;;16.55;100.00;100521.16;5049168;28;23013;-41
2023/07/23 07:56:17;;;;;;;18.60;17.40;;;;;;;16.55;100.00;100515.75;5049334;28;20967;-41
2023/07/23 07:58:46;;;;;;;19.13;18.23;;;;;;;16.59;100.00;100516.09;5042545;28;20436;-41
2023/07/23 08:01:15;;;;;;;19.63;18.73;;;;;;;16.67;100.00;100514.88;5048996;28;20500;-40
2023/07/23 08:03:44;;;;;;;19.63;18.60;;;;;;;16.73;100.00;100509.34;5049512;28;20461;-41
2023/07/23 08:06:13;;;;;;;18.70;17.80;;;;;;;16.84;100.00;100505.81;5053901;28;21025;-41
2023/07/23 08:08:42;;;;;;;19.33;18.53;;;;;;;16.92;100.00;100509.97;5052229;28;20423;-41
2023/07/23 08:11:10;;;;;;;20.87;19.77;;;;;;;16.88;100.00;100498.84;5062014;28;20461;-42
2023/07/23 08:13:38;;;;;;;19.80;18.80;;;;;;;16.98;100.00;100500.91;5060512;28;20473;-42
2023/07/23 08:16:07;;;;;;;19.70;18.60;;;;;;;16.98;100.00;100501.72;5062147;28;20505;-41
2023/07/23 08:18:37;;;;;;;21.57;20.30;;;;;;;17.10;100.00;100502.47;5051169;28;20422;-41
2023/07/23 08:21:06;;;;;;;21.60;20.40;;;;;;;17.14;100.00;100506.28;5052140;28;20444;-42
2023/07/23 08:23:36;;;;;;;19.90;18.93;;;;;;;17.21;100.00;100503.44;5047765;28;21067;-44
2023/07/23 08:26:06;;;;;;;21.40;20.30;;;;;;;17.24;100.00;100494.84;5059540;28;20991;-44
2023/07/23 08:28:38;;;;;;;20.23;19.13;;;;;;;17.33;100.00;100497.94;5057649;28;20434;-47
2023/07/23 08:31:06;;;;;;;21.07;19.63;;;;;;;17.39;100.00;100503.19;5059079;28;20462;-44
2023/07/23 08:33:34;;;;;;;20.53;19.53;;;;;;;17.46;100.00;100492.22;5060986;28;20527;-45
2023/07/23 08:36:04;;;;;;;21.53;20.43;;;;;;;17.47;100.00;100491.97;5061427;28;20639;-41
2023/07/23 08:38:32;;;;;;;21.77;20.67;;;;;;;17.55;100.00;100490.78;5061919;28;20489;-40
2023/07/23 08:41:03;;;;;;;21.80;20.40;;;;;;;17.69;100.00;100494.75;5060051;28;20443;-42
2023/07/23 08:44:08;;;;;;;19.13;18.10;;;;;;;17.77;100.00;100483.50;5059804;28;20451;-41
2023/07/23 08:46:44;;;;;;;20.77;19.60;;;;;;;17.83;100.00;100485.22;5049904;28;20507;-41
2023/07/23 08:49:12;;;;;;;20.37;19.27;;;;;;;17.85;100.00;100487.69;5058919;28;20427;-41
2023/07/23 08:51:46;;;;;;;22.30;21.10;;;;;;;17.91;100.00;100487.50;5055657;28;20438;-41
2023/07/23 08:54:16;;;;;;;20.60;19.60;;;;;;;17.89;100.00;100478.03;5061077;28;20482;-41
2023/07/23 08:56:44;;;;;;;19.70;18.77;;;;;;;17.88;100.00;100485.31;5061645;28;20423;-43
2023/07/23 08:59:13;;;;;;;20.27;19.10;;;;;;;17.93;100.00;100484.53;5060583;28;20484;-40
2023/07/23 09:01:42;;;;;;;19.77;18.87;;;;;;;17.96;100.00;100471.38;5059735;28;20431;-40
2023/07/23 09:04:12;;;;;;;20.43;19.03;;;;;;;17.95;100.00;100472.41;5047435;28;20463;-40
2023/07/23 09:06:42;;;;;;;20.20;19.10;;;;;;;17.96;100.00;100476.75;5060339;28;20439;-44
2023/07/23 09:09:12;;;;;;;20.27;19.27;;;;;;;17.95;100.00;100468.94;5060102;28;20438;-41
2023/07/23 09:11:41;;;;;;;19.97;18.80;;;;;;;18.00;100.00;100469.81;5055363;28;20430;-40
2023/07/23 09:14:10;;;;;;;20.20;19.20;;;;;;;18.03;100.00;100468.47;5060395;28;20493;-40
2023/07/23 09:16:39;;;;;;;20.67;19.47;;;;;;;18.01;100.00;100463.31;5056490;28;20471;-40
2023/07/23 09:19:10;;;;;;;20.40;19.30;;;;;;;18.07;100.00;100466.91;5055928;28;20479;-41
2023/07/23 09:21:39;;;;;;;20.20;19.20;;;;;;;18.01;100.00;100462.53;5058396;28;20446;-44
2023/07/23 09:24:09;;;;;;;21.20;20.00;;;;;;;18.09;100.00;100459.38;5060185;28;20515;-41
2023/07/23 09:26:39;;;;;;;20.37;19.27;;;;;;;18.08;100.00;100450.47;5061304;28;20534;-41
2023/07/23 09:29:09;;;;;;;20.90;19.70;;;;;;;18.03;100.00;100455.00;5055424;28;20443;-42
2023/07/23 09:31:38;;;;;;;21.10;19.90;;;;;;;17.99;100.00;100461.94;5051021;28;20423;-44
2023/07/23 09:34:06;;;;;;;22.47;21.27;;;;;;;18.10;100.00;100456.41;5058342;28;20482;-43
2023/07/23 09:36:33;;;;;;;20.43;19.10;;;;;;;18.16;100.00;100454.59;5057739;28;20475;-42
2023/07/23 09:39:02;;;;;;;19.53;18.63;;;;;;;18.21;100.00;100457.34;5058407;28;20438;-46
2023/07/23 09:41:33;;;;;;;20.60;19.30;;;;;;;18.32;100.00;100455.56;5056370;28;20430;-43
2023/07/23 09:44:05;;;;;;;21.80;20.60;;;;;;;18.33;100.00;100454.50;5056545;28;20535;-44
2023/07/23 09:46:33;;;;;;;20.40;19.50;;;;;;;18.46;100.00;100457.59;5056377;28;20419;-46
2023/07/23 09:49:00;;;;;;;20.70;19.60;;;;;;;18.55;100.00;100449.88;5050450;28;20440;-43
2023/07/23 09:51:28;;;;;;;20.90;19.80;;;;;;;18.58;100.00;100446.69;5045015;28;20431;-44
2023/07/23 09:54:01;;;;;;;21.13;20.03;;;;;;;18.64;100.00;100441.06;5046337;28;20462;-43
2023/07/23 09:56:29;;;;;;;21.23;20.20;;;;;;;18.63;100.00;100444.88;5053828;28;20967;-47
2023/07/23 09:58:58;;;;;;;20.83;19.53;;;;;;;18.56;100.00;100436.16;5053073;28;20488;-45
2023/07/23 10:01:30;;;;;;;20.10;19.23;;;;;;;18.62;100.00;100445.91;5050235;28;20474;-44
2023/07/23 10:04:00;;;;;;;21.20;20.20;;;;;;;18.68;100.00;100441.38;5037842;28;20475;-46
2023/07/23 10:06:28;;;;;;;21.17;20.17;;;;;;;18.67;100.00;100442.44;5049726;28;20427;-45
2023/07/23 10:08:57;;;;;;;21.03;19.83;;;;;;;18.69;100.00;100441.13;5054264;28;20458;-48
2023/07/23 10:11:25;;;;;;;23.30;21.90;;;;;;;18.70;100.00;100439.22;5055250;28;20945;-44
2023/07/23 10:13:54;;;;;;;20.53;19.63;;;;;;;18.76;100.00;100427.38;5056558;28;20520;-46
2023/07/23 10:16:23;;;;;;;21.47;20.47;;;;;;;18.72;100.00;100423.59;5050504;28;20479;-46
2023/07/23 10:18:54;;;;;;;21.23;20.23;;;;;;;18.70;100.00;100423.84;5051326;28;20434;-45
2023/07/23 10:21:22;;;;;;;20.60;19.60;;;;;;;18.71;100.00;100420.06;5051685;28;21010;-44
2023/07/23 10:23:56;;;;;;;22.57;21.17;;;;;;;18.71;100.00;100416.56;5049548;28;21038;-45
2023/07/23 10:26:25;;;;;;;21.33;20.33;;;;;;;18.68;100.00;100422.47;5044255;28;20467;-47
2023/07/23 10:28:58;;;;;;;21.53;20.43;;;;;;;18.72;100.00;100415.50;5051087;28;20910;-43
2023/07/23 10:31:28;;;;;;;21.17;19.87;;;;;;;18.71;100.00;100414.66;5051341;28;21351;-43
2023/07/23 10:33:57;;;;;;;22.20;20.77;;;;;;;18.79;100.00;100416.88;5046111;28;20502;-45
2023/07/23 10:36:25;;;;;;;21.20;20.20;;;;;;;18.82;100.00;100414.75;5056065;28;20474;-43
2023/07/23 10:39:17;;;;;;;20.27;19.37;;;;;;;18.82;100.00;100415.56;5057515;28;20515;-43
2023/07/23 10:41:53;;;;;;;19.97;18.93;;;;;;;18.79;100.00;100405.25;5045919;28;20427;-45
2023/07/23 10:44:25;;;;;;;21.27;19.70;;;;;;;18.88;100.00;100400.19;5045185;28;20465;-42
2023/07/23 10:46:53;;;;;;;19.83;18.83;;;;;;;18.94;100.00;100402.69;5046273;28;20426;-43
2023/07/23 10:49:24;;;;;;;20.93;19.80;;;;;;;18.95;100.00;100398.91;5047446;28;20469;-43
2023/07/23 10:51:52;;;;;;;19.90;18.70;;;;;;;19.04;100.00;100399.25;5049203;28;20422;-44
2023/07/23 10:54:20;;;;;;;20.20;19.20;;;;;;;19.19;100.00;100402.84;5047488;28;20665;-47
2023/07/23 10:56:50;;;;;;;21.73;20.63;;;;;;;19.09;100.00;100397.38;5047402;28;20539;-44
2023/07/23 10:59:21;;;;;;;21.53;20.43;;;;;;;19.01;100.00;100392.47;5047911;28;20499;-42
2023/07/23 11:01:51;;;;;;;20.93;19.83;;;;;;;18.94;100.00;100402.69;5050978;28;20459;-43
2023/07/23 11:04:26;;;;;;;19.83;18.73;;;;;;;18.84;100.00;100399.91;5053175;28;20490;-44
2023/07/23 11:07:00;;;;;;;19.83;18.83;;;;;;;18.70;100.00;100399.53;5053311;28;20426;-44
2023/07/23 11:09:30;;;;;;;19.47;18.47;;;;;;;18.59;100.00;100402.41;5060628;28;20477;-42